sensor_id;sensor_type;location;lat;lon;timestamp;P1;durP1;ratioP1;P2;durP2;ratioP2
67768;SDS011;54569;52.018;5.584;2024-01-30T00:01:54;14.38;;;9.55;;
67768;SDS011;54569;52.018;5.584;2024-01-30T00:04:20;9.95;;;8.95;;
67768;SDS011;54569;52.018;5.584;2024-01-30T00:06:46;11.95;;;9.85;;
67768;SDS011;54569;52.018;5.584;2024-01-30T00:09:12;11.55;;;9.23;;
67768;SDS011;54569;52.018;5.584;2024-01-30T00:11:38;12.20;;;8.85;;
67768;SDS011;54569;52.018;5.584;2024-01-30T00:14:04;12.60;;;9.93;;
67768;SDS011;54569;52.018;5.584;2024-01-30T00:16:30;12.57;;;9.27;;
67768;SDS011;54569;52.018;5.584;2024-01-30T00:18:56;11.63;;;9.77;;
67768;SDS011;54569;52.018;5.584;2024-01-30T00:21:22;11.02;;;8.65;;
67768;SDS011;54569;52.018;5.584;2024-01-30T00:23:48;10.57;;;9.45;;
67768;SDS011;54569;52.018;5.584;2024-01-30T00:26:14;10.93;;;9.10;;
67768;SDS011;54569;52.018;5.584;2024-01-30T00:28:40;10.40;;;9.30;;
67768;SDS011;54569;52.018;5.584;2024-01-30T00:31:07;11.73;;;8.90;;
67768;SDS011;54569;52.018;5.584;2024-01-30T00:33:37;12.85;;;9.20;;
67768;SDS011;54569;52.018;5.584;2024-01-30T00:36:04;11.90;;;9.15;;
67768;SDS011;54569;52.018;5.584;2024-01-30T00:38:30;12.40;;;9.35;;
67768;SDS011;54569;52.018;5.584;2024-01-30T00:40:56;11.60;;;9.30;;
67768;SDS011;54569;52.018;5.584;2024-01-30T00:43:22;11.85;;;9.25;;
67768;SDS011;54569;52.018;5.584;2024-01-30T00:45:49;10.57;;;8.38;;
67768;SDS011;54569;52.018;5.584;2024-01-30T00:48:17;13.48;;;9.43;;
67768;SDS011;54569;52.018;5.584;2024-01-30T00:50:42;12.88;;;9.20;;
67768;SDS011;54569;52.018;5.584;2024-01-30T00:53:08;13.27;;;8.85;;
67768;SDS011;54569;52.018;5.584;2024-01-30T00:55:34;11.82;;;9.43;;
67768;SDS011;54569;52.018;5.584;2024-01-30T00:58:00;10.32;;;9.20;;
67768;SDS011;54569;52.018;5.584;2024-01-30T01:00:26;11.50;;;9.20;;
67768;SDS011;54569;52.018;5.584;2024-01-30T01:02:56;11.80;;;9.07;;
67768;SDS011;54569;52.018;5.584;2024-01-30T01:05:21;11.93;;;9.07;;
67768;SDS011;54569;52.018;5.584;2024-01-30T01:07:47;10.60;;;8.90;;
67768;SDS011;54569;52.018;5.584;2024-01-30T01:10:13;10.70;;;9.15;;
67768;SDS011;54569;52.018;5.584;2024-01-30T01:12:41;14.27;;;9.80;;
67768;SDS011;54569;52.018;5.584;2024-01-30T01:15:07;9.65;;;8.20;;
67768;SDS011;54569;52.018;5.584;2024-01-30T01:17:35;8.90;;;7.88;;
67768;SDS011;54569;52.018;5.584;2024-01-30T01:20:01;10.10;;;8.85;;
67768;SDS011;54569;52.018;5.584;2024-01-30T01:22:28;10.13;;;8.05;;
67768;SDS011;54569;52.018;5.584;2024-01-30T01:24:54;11.15;;;8.23;;
67768;SDS011;54569;52.018;5.584;2024-01-30T01:27:20;10.07;;;8.95;;
67768;SDS011;54569;52.018;5.584;2024-01-30T01:29:46;9.00;;;8.05;;
67768;SDS011;54569;52.018;5.584;2024-01-30T01:32:12;10.93;;;8.98;;
67768;SDS011;54569;52.018;5.584;2024-01-30T01:34:37;9.45;;;8.00;;
67768;SDS011;54569;52.018;5.584;2024-01-30T01:37:03;10.82;;;9.07;;
67768;SDS011;54569;52.018;5.584;2024-01-30T01:39:29;10.23;;;8.43;;
67768;SDS011;54569;52.018;5.584;2024-01-30T01:41:55;10.98;;;8.43;;
67768;SDS011;54569;52.018;5.584;2024-01-30T01:44:22;11.20;;;8.95;;
67768;SDS011;54569;52.018;5.584;2024-01-30T01:46:47;9.93;;;8.38;;
67768;SDS011;54569;52.018;5.584;2024-01-30T01:49:14;9.80;;;8.10;;
67768;SDS011;54569;52.018;5.584;2024-01-30T01:51:40;9.00;;;8.07;;
67768;SDS011;54569;52.018;5.584;2024-01-30T01:54:07;10.13;;;7.63;;
67768;SDS011;54569;52.018;5.584;2024-01-30T01:56:33;9.63;;;7.90;;
67768;SDS011;54569;52.018;5.584;2024-01-30T01:59:00;9.38;;;8.23;;
67768;SDS011;54569;52.018;5.584;2024-01-30T02:01:38;11.52;;;9.20;;
67768;SDS011;54569;52.018;5.584;2024-01-30T02:04:06;10.48;;;8.18;;
67768;SDS011;54569;52.018;5.584;2024-01-30T02:06:33;10.10;;;8.25;;
67768;SDS011;54569;52.018;5.584;2024-01-30T02:09:00;10.27;;;8.57;;
67768;SDS011;54569;52.018;5.584;2024-01-30T02:11:26;8.90;;;8.00;;
67768;SDS011;54569;52.018;5.584;2024-01-30T02:13:52;10.07;;;7.80;;
67768;SDS011;54569;52.018;5.584;2024-01-30T02:16:18;11.90;;;8.55;;
67768;SDS011;54569;52.018;5.584;2024-01-30T02:18:44;10.57;;;8.52;;
67768;SDS011;54569;52.018;5.584;2024-01-30T02:21:12;12.40;;;8.38;;
67768;SDS011;54569;52.018;5.584;2024-01-30T02:23:43;10.02;;;8.27;;
67768;SDS011;54569;52.018;5.584;2024-01-30T02:26:09;13.07;;;8.73;;
67768;SDS011;54569;52.018;5.584;2024-01-30T02:28:37;10.27;;;8.52;;
67768;SDS011;54569;52.018;5.584;2024-01-30T02:31:03;10.48;;;7.93;;
67768;SDS011;54569;52.018;5.584;2024-01-30T02:33:29;10.82;;;8.23;;
67768;SDS011;54569;52.018;5.584;2024-01-30T02:35:55;12.70;;;9.27;;
67768;SDS011;54569;52.018;5.584;2024-01-30T02:38:21;11.98;;;8.27;;
67768;SDS011;54569;52.018;5.584;2024-01-30T02:40:48;10.77;;;9.25;;
67768;SDS011;54569;52.018;5.584;2024-01-30T02:43:14;10.35;;;8.25;;
67768;SDS011;54569;52.018;5.584;2024-01-30T02:45:40;10.45;;;8.32;;
67768;SDS011;54569;52.018;5.584;2024-01-30T02:48:06;9.38;;;8.07;;
67768;SDS011;54569;52.018;5.584;2024-01-30T02:50:32;9.60;;;8.60;;
67768;SDS011;54569;52.018;5.584;2024-01-30T02:52:58;13.77;;;8.57;;
67768;SDS011;54569;52.018;5.584;2024-01-30T02:55:23;9.73;;;8.38;;
67768;SDS011;54569;52.018;5.584;2024-01-30T02:57:49;10.38;;;8.23;;
67768;SDS011;54569;52.018;5.584;2024-01-30T03:00:15;9.63;;;8.23;;
67768;SDS011;54569;52.018;5.584;2024-01-30T03:02:41;10.23;;;8.77;;
67768;SDS011;54569;52.018;5.584;2024-01-30T03:05:07;10.10;;;8.18;;
67768;SDS011;54569;52.018;5.584;2024-01-30T03:07:33;11.60;;;7.70;;
67768;SDS011;54569;52.018;5.584;2024-01-30T03:09:59;9.75;;;8.75;;
67768;SDS011;54569;52.018;5.584;2024-01-30T03:12:25;11.10;;;8.18;;
67768;SDS011;54569;52.018;5.584;2024-01-30T03:14:50;10.00;;;8.02;;
67768;SDS011;54569;52.018;5.584;2024-01-30T03:17:16;11.13;;;8.88;;
67768;SDS011;54569;52.018;5.584;2024-01-30T03:19:42;9.60;;;7.88;;
67768;SDS011;54569;52.018;5.584;2024-01-30T03:22:08;12.50;;;8.63;;
67768;SDS011;54569;52.018;5.584;2024-01-30T03:24:33;10.57;;;8.15;;
67768;SDS011;54569;52.018;5.584;2024-01-30T03:26:59;9.23;;;8.13;;
67768;SDS011;54569;52.018;5.584;2024-01-30T03:29:25;10.13;;;8.25;;
67768;SDS011;54569;52.018;5.584;2024-01-30T03:31:51;10.77;;;8.27;;
67768;SDS011;54569;52.018;5.584;2024-01-30T03:34:16;10.38;;;7.78;;
67768;SDS011;54569;52.018;5.584;2024-01-30T03:36:42;9.18;;;8.02;;
67768;SDS011;54569;52.018;5.584;2024-01-30T03:39:08;9.63;;;7.85;;
67768;SDS011;54569;52.018;5.584;2024-01-30T03:41:33;10.63;;;8.35;;
67768;SDS011;54569;52.018;5.584;2024-01-30T03:43:59;12.18;;;8.85;;
67768;SDS011;54569;52.018;5.584;2024-01-30T03:46:25;10.35;;;8.63;;
67768;SDS011;54569;52.018;5.584;2024-01-30T03:48:50;9.75;;;8.27;;
67768;SDS011;54569;52.018;5.584;2024-01-30T03:51:16;9.27;;;7.97;;
67768;SDS011;54569;52.018;5.584;2024-01-30T03:53:42;10.73;;;8.15;;
67768;SDS011;54569;52.018;5.584;2024-01-30T03:56:08;12.07;;;7.63;;
67768;SDS011;54569;52.018;5.584;2024-01-30T03:58:34;13.60;;;8.57;;
67768;SDS011;54569;52.018;5.584;2024-01-30T04:01:00;8.80;;;7.65;;
67768;SDS011;54569;52.018;5.584;2024-01-30T04:03:26;8.48;;;7.65;;
67768;SDS011;54569;52.018;5.584;2024-01-30T04:05:52;8.80;;;7.90;;
67768;SDS011;54569;52.018;5.584;2024-01-30T04:08:18;10.80;;;7.88;;
67768;SDS011;54569;52.018;5.584;2024-01-30T04:10:44;9.93;;;7.82;;
67768;SDS011;54569;52.018;5.584;2024-01-30T04:13:10;11.43;;;8.18;;
67768;SDS011;54569;52.018;5.584;2024-01-30T04:15:36;9.70;;;7.70;;
67768;SDS011;54569;52.018;5.584;2024-01-30T04:18:02;9.65;;;8.27;;
67768;SDS011;54569;52.018;5.584;2024-01-30T04:20:27;10.75;;;8.70;;
67768;SDS011;54569;52.018;5.584;2024-01-30T04:22:54;11.25;;;8.65;;
67768;SDS011;54569;52.018;5.584;2024-01-30T04:25:20;10.93;;;8.43;;
67768;SDS011;54569;52.018;5.584;2024-01-30T04:27:47;12.40;;;8.48;;
67768;SDS011;54569;52.018;5.584;2024-01-30T04:30:12;10.20;;;8.18;;
67768;SDS011;54569;52.018;5.584;2024-01-30T04:32:38;10.63;;;7.53;;
67768;SDS011;54569;52.018;5.584;2024-01-30T04:35:04;11.75;;;8.32;;
67768;SDS011;54569;52.018;5.584;2024-01-30T04:37:30;9.15;;;7.97;;
67768;SDS011;54569;52.018;5.584;2024-01-30T04:39:56;10.05;;;8.75;;
67768;SDS011;54569;52.018;5.584;2024-01-30T04:42:22;9.63;;;8.02;;
67768;SDS011;54569;52.018;5.584;2024-01-30T04:44:48;8.73;;;7.78;;
67768;SDS011;54569;52.018;5.584;2024-01-30T04:47:14;10.35;;;8.48;;
67768;SDS011;54569;52.018;5.584;2024-01-30T04:49:40;9.80;;;7.35;;
67768;SDS011;54569;52.018;5.584;2024-01-30T04:52:06;12.20;;;8.07;;
67768;SDS011;54569;52.018;5.584;2024-01-30T04:54:32;10.57;;;8.20;;
67768;SDS011;54569;52.018;5.584;2024-01-30T04:56:59;8.52;;;7.60;;
67768;SDS011;54569;52.018;5.584;2024-01-30T04:59:25;9.23;;;8.10;;
67768;SDS011;54569;52.018;5.584;2024-01-30T05:01:51;10.68;;;8.15;;
67768;SDS011;54569;52.018;5.584;2024-01-30T05:04:17;13.77;;;8.90;;
67768;SDS011;54569;52.018;5.584;2024-01-30T05:06:43;10.88;;;8.00;;
67768;SDS011;54569;52.018;5.584;2024-01-30T05:09:08;9.18;;;7.05;;
67768;SDS011;54569;52.018;5.584;2024-01-30T05:11:38;10.30;;;7.75;;
67768;SDS011;54569;52.018;5.584;2024-01-30T05:14:04;9.68;;;8.02;;
67768;SDS011;54569;52.018;5.584;2024-01-30T05:16:30;10.25;;;8.07;;
67768;SDS011;54569;52.018;5.584;2024-01-30T05:18:57;8.70;;;7.53;;
67768;SDS011;54569;52.018;5.584;2024-01-30T05:21:23;9.93;;;7.20;;
67768;SDS011;54569;52.018;5.584;2024-01-30T05:23:49;11.00;;;7.70;;
67768;SDS011;54569;52.018;5.584;2024-01-30T05:26:15;9.43;;;7.60;;
67768;SDS011;54569;52.018;5.584;2024-01-30T05:28:40;9.60;;;7.10;;
67768;SDS011;54569;52.018;5.584;2024-01-30T05:31:06;9.13;;;7.88;;
67768;SDS011;54569;52.018;5.584;2024-01-30T05:33:33;9.85;;;8.02;;
67768;SDS011;54569;52.018;5.584;2024-01-30T05:35:59;8.02;;;7.22;;
67768;SDS011;54569;52.018;5.584;2024-01-30T05:38:24;11.23;;;8.00;;
67768;SDS011;54569;52.018;5.584;2024-01-30T05:40:50;10.02;;;7.55;;
67768;SDS011;54569;52.018;5.584;2024-01-30T05:43:16;9.50;;;6.85;;
67768;SDS011;54569;52.018;5.584;2024-01-30T05:45:41;11.48;;;7.72;;
67768;SDS011;54569;52.018;5.584;2024-01-30T05:48:07;10.80;;;7.55;;
67768;SDS011;54569;52.018;5.584;2024-01-30T05:50:33;10.00;;;7.43;;
67768;SDS011;54569;52.018;5.584;2024-01-30T05:52:58;9.13;;;7.13;;
67768;SDS011;54569;52.018;5.584;2024-01-30T05:55:24;9.77;;;7.72;;
67768;SDS011;54569;52.018;5.584;2024-01-30T05:57:50;10.43;;;7.35;;
67768;SDS011;54569;52.018;5.584;2024-01-30T06:00:17;8.68;;;7.18;;
67768;SDS011;54569;52.018;5.584;2024-01-30T06:02:43;8.05;;;7.25;;
67768;SDS011;54569;52.018;5.584;2024-01-30T06:05:09;7.80;;;7.00;;
67768;SDS011;54569;52.018;5.584;2024-01-30T06:07:34;9.95;;;7.07;;
67768;SDS011;54569;52.018;5.584;2024-01-30T06:10:00;9.68;;;6.78;;
67768;SDS011;54569;52.018;5.584;2024-01-30T06:12:27;11.25;;;7.85;;
67768;SDS011;54569;52.018;5.584;2024-01-30T06:14:53;10.70;;;7.18;;
67768;SDS011;54569;52.018;5.584;2024-01-30T06:17:22;8.43;;;7.00;;
67768;SDS011;54569;52.018;5.584;2024-01-30T06:19:48;10.40;;;7.30;;
67768;SDS011;54569;52.018;5.584;2024-01-30T06:22:14;8.90;;;7.00;;
67768;SDS011;54569;52.018;5.584;2024-01-30T06:24:40;7.78;;;6.75;;
67768;SDS011;54569;52.018;5.584;2024-01-30T06:27:06;7.22;;;6.55;;
67768;SDS011;54569;52.018;5.584;2024-01-30T06:29:32;9.40;;;6.75;;
67768;SDS011;54569;52.018;5.584;2024-01-30T06:31:57;8.93;;;6.32;;
67768;SDS011;54569;52.018;5.584;2024-01-30T06:34:23;10.07;;;7.10;;
67768;SDS011;54569;52.018;5.584;2024-01-30T06:36:49;9.20;;;7.25;;
67768;SDS011;54569;52.018;5.584;2024-01-30T06:39:15;10.90;;;8.32;;
67768;SDS011;54569;52.018;5.584;2024-01-30T06:41:40;11.38;;;8.60;;
67768;SDS011;54569;52.018;5.584;2024-01-30T06:44:06;9.82;;;7.95;;
67768;SDS011;54569;52.018;5.584;2024-01-30T06:46:33;11.65;;;7.03;;
67768;SDS011;54569;52.018;5.584;2024-01-30T06:48:59;9.02;;;7.32;;
67768;SDS011;54569;52.018;5.584;2024-01-30T06:51:25;7.63;;;6.53;;
67768;SDS011;54569;52.018;5.584;2024-01-30T06:53:50;8.55;;;6.85;;
67768;SDS011;54569;52.018;5.584;2024-01-30T06:56:16;12.10;;;7.47;;
67768;SDS011;54569;52.018;5.584;2024-01-30T06:58:46;8.57;;;7.07;;
67768;SDS011;54569;52.018;5.584;2024-01-30T07:01:15;11.27;;;7.40;;
67768;SDS011;54569;52.018;5.584;2024-01-30T07:03:42;9.80;;;7.80;;
67768;SDS011;54569;52.018;5.584;2024-01-30T07:06:09;11.52;;;8.55;;
67768;SDS011;54569;52.018;5.584;2024-01-30T07:08:36;7.65;;;6.82;;
67768;SDS011;54569;52.018;5.584;2024-01-30T07:11:04;10.02;;;7.18;;
67768;SDS011;54569;52.018;5.584;2024-01-30T07:13:31;9.30;;;7.38;;
67768;SDS011;54569;52.018;5.584;2024-01-30T07:15:57;9.23;;;7.47;;
67768;SDS011;54569;52.018;5.584;2024-01-30T07:18:23;10.68;;;7.88;;
67768;SDS011;54569;52.018;5.584;2024-01-30T07:20:48;10.63;;;7.10;;
67768;SDS011;54569;52.018;5.584;2024-01-30T07:23:15;7.70;;;7.00;;
67768;SDS011;54569;52.018;5.584;2024-01-30T07:25:45;8.38;;;6.97;;
67768;SDS011;54569;52.018;5.584;2024-01-30T07:28:13;8.60;;;6.78;;
67768;SDS011;54569;52.018;5.584;2024-01-30T07:30:41;13.45;;;7.50;;
67768;SDS011;54569;52.018;5.584;2024-01-30T07:33:08;9.30;;;7.63;;
67768;SDS011;54569;52.018;5.584;2024-01-30T07:35:34;8.52;;;6.85;;
67768;SDS011;54569;52.018;5.584;2024-01-30T07:38:00;10.48;;;7.00;;
67768;SDS011;54569;52.018;5.584;2024-01-30T07:40:26;8.35;;;6.63;;
67768;SDS011;54569;52.018;5.584;2024-01-30T07:42:53;8.07;;;7.28;;
67768;SDS011;54569;52.018;5.584;2024-01-30T07:45:19;8.43;;;6.78;;
67768;SDS011;54569;52.018;5.584;2024-01-30T07:47:49;9.02;;;7.07;;
67768;SDS011;54569;52.018;5.584;2024-01-30T07:50:16;8.98;;;6.22;;
67768;SDS011;54569;52.018;5.584;2024-01-30T07:52:42;9.48;;;6.50;;
67768;SDS011;54569;52.018;5.584;2024-01-30T07:55:08;8.52;;;7.05;;
67768;SDS011;54569;52.018;5.584;2024-01-30T07:57:34;7.15;;;5.95;;
67768;SDS011;54569;52.018;5.584;2024-01-30T08:00:00;8.23;;;6.72;;
67768;SDS011;54569;52.018;5.584;2024-01-30T08:02:32;7.28;;;6.07;;
67768;SDS011;54569;52.018;5.584;2024-01-30T08:04:58;12.30;;;6.78;;
67768;SDS011;54569;52.018;5.584;2024-01-30T08:07:23;9.25;;;6.53;;
67768;SDS011;54569;52.018;5.584;2024-01-30T08:09:49;9.35;;;6.65;;
67768;SDS011;54569;52.018;5.584;2024-01-30T08:12:15;7.60;;;6.57;;
67768;SDS011;54569;52.018;5.584;2024-01-30T08:14:41;8.88;;;6.38;;
67768;SDS011;54569;52.018;5.584;2024-01-30T08:17:07;8.57;;;6.65;;
67768;SDS011;54569;52.018;5.584;2024-01-30T08:19:33;10.90;;;6.70;;
67768;SDS011;54569;52.018;5.584;2024-01-30T08:21:59;13.05;;;6.35;;
67768;SDS011;54569;52.018;5.584;2024-01-30T08:24:24;7.15;;;5.95;;
67768;SDS011;54569;52.018;5.584;2024-01-30T08:26:50;9.13;;;5.70;;
67768;SDS011;54569;52.018;5.584;2024-01-30T08:29:16;9.43;;;6.45;;
67768;SDS011;54569;52.018;5.584;2024-01-30T08:31:41;9.48;;;6.80;;
67768;SDS011;54569;52.018;5.584;2024-01-30T08:34:07;7.60;;;6.22;;
67768;SDS011;54569;52.018;5.584;2024-01-30T08:36:33;13.15;;;6.03;;
67768;SDS011;54569;52.018;5.584;2024-01-30T08:38:59;10.70;;;6.50;;
67768;SDS011;54569;52.018;5.584;2024-01-30T08:41:24;10.98;;;6.55;;
67768;SDS011;54569;52.018;5.584;2024-01-30T08:43:51;9.50;;;6.28;;
67768;SDS011;54569;52.018;5.584;2024-01-30T08:46:18;7.32;;;6.15;;
67768;SDS011;54569;52.018;5.584;2024-01-30T08:48:44;10.60;;;6.30;;
67768;SDS011;54569;52.018;5.584;2024-01-30T08:51:10;8.23;;;6.25;;
67768;SDS011;54569;52.018;5.584;2024-01-30T08:53:36;7.03;;;6.00;;
67768;SDS011;54569;52.018;5.584;2024-01-30T08:56:02;9.85;;;6.70;;
67768;SDS011;54569;52.018;5.584;2024-01-30T08:58:29;7.68;;;6.13;;
67768;SDS011;54569;52.018;5.584;2024-01-30T09:00:55;6.78;;;6.10;;
67768;SDS011;54569;52.018;5.584;2024-01-30T09:03:20;11.13;;;6.75;;
67768;SDS011;54569;52.018;5.584;2024-01-30T09:05:46;8.63;;;6.70;;
67768;SDS011;54569;52.018;5.584;2024-01-30T09:08:12;12.82;;;6.40;;
67768;SDS011;54569;52.018;5.584;2024-01-30T09:10:37;8.68;;;6.40;;
67768;SDS011;54569;52.018;5.584;2024-01-30T09:13:03;12.15;;;6.85;;
67768;SDS011;54569;52.018;5.584;2024-01-30T09:15:29;10.38;;;7.35;;
67768;SDS011;54569;52.018;5.584;2024-01-30T09:17:55;9.00;;;6.50;;
67768;SDS011;54569;52.018;5.584;2024-01-30T09:20:20;9.30;;;6.25;;
67768;SDS011;54569;52.018;5.584;2024-01-30T09:22:47;9.00;;;6.18;;
67768;SDS011;54569;52.018;5.584;2024-01-30T09:25:14;9.75;;;6.90;;
67768;SDS011;54569;52.018;5.584;2024-01-30T09:27:40;9.52;;;7.32;;
67768;SDS011;54569;52.018;5.584;2024-01-30T09:30:06;9.15;;;6.90;;
67768;SDS011;54569;52.018;5.584;2024-01-30T09:32:32;9.27;;;7.00;;
67768;SDS011;54569;52.018;5.584;2024-01-30T09:34:58;9.30;;;6.55;;
67768;SDS011;54569;52.018;5.584;2024-01-30T09:37:24;10.77;;;6.78;;
67768;SDS011;54569;52.018;5.584;2024-01-30T09:39:49;10.35;;;7.13;;
67768;SDS011;54569;52.018;5.584;2024-01-30T09:44:50;12.95;;;7.50;;
67768;SDS011;54569;52.018;5.584;2024-01-30T09:47:17;12.48;;;6.57;;
67768;SDS011;54569;52.018;5.584;2024-01-30T09:49:43;10.73;;;6.57;;
67768;SDS011;54569;52.018;5.584;2024-01-30T09:52:09;11.85;;;7.82;;
67768;SDS011;54569;52.018;5.584;2024-01-30T09:54:36;13.00;;;6.90;;
67768;SDS011;54569;52.018;5.584;2024-01-30T09:57:03;10.98;;;7.63;;
67768;SDS011;54569;52.018;5.584;2024-01-30T09:59:30;9.48;;;6.60;;
67768;SDS011;54569;52.018;5.584;2024-01-30T10:01:56;9.32;;;7.22;;
67768;SDS011;54569;52.018;5.584;2024-01-30T10:04:22;11.73;;;6.88;;
67768;SDS011;54569;52.018;5.584;2024-01-30T10:06:48;12.27;;;7.13;;
67768;SDS011;54569;52.018;5.584;2024-01-30T10:09:14;11.63;;;7.15;;
67768;SDS011;54569;52.018;5.584;2024-01-30T10:11:40;13.27;;;7.75;;
67768;SDS011;54569;52.018;5.584;2024-01-30T10:14:06;14.65;;;7.80;;
67768;SDS011;54569;52.018;5.584;2024-01-30T10:16:31;12.23;;;7.25;;
67768;SDS011;54569;52.018;5.584;2024-01-30T10:18:57;10.40;;;7.65;;
67768;SDS011;54569;52.018;5.584;2024-01-30T10:21:23;9.90;;;7.18;;
67768;SDS011;54569;52.018;5.584;2024-01-30T10:23:49;9.32;;;6.78;;
67768;SDS011;54569;52.018;5.584;2024-01-30T10:26:18;9.23;;;6.22;;
67768;SDS011;54569;52.018;5.584;2024-01-30T10:28:44;10.13;;;6.18;;
67768;SDS011;54569;52.018;5.584;2024-01-30T10:31:10;9.60;;;6.03;;
67768;SDS011;54569;52.018;5.584;2024-01-30T10:33:35;7.13;;;5.38;;
67768;SDS011;54569;52.018;5.584;2024-01-30T10:36:02;9.82;;;5.40;;
67768;SDS011;54569;52.018;5.584;2024-01-30T10:38:29;10.63;;;5.57;;
67768;SDS011;54569;52.018;5.584;2024-01-30T10:40:56;8.88;;;5.72;;
67768;SDS011;54569;52.018;5.584;2024-01-30T10:43:24;9.05;;;5.97;;
67768;SDS011;54569;52.018;5.584;2024-01-30T10:46:01;10.45;;;5.75;;
67768;SDS011;54569;52.018;5.584;2024-01-30T10:48:41;10.95;;;6.20;;
67768;SDS011;54569;52.018;5.584;2024-01-30T10:51:09;9.65;;;5.68;;
67768;SDS011;54569;52.018;5.584;2024-01-30T10:53:36;9.20;;;5.72;;
67768;SDS011;54569;52.018;5.584;2024-01-30T10:56:02;7.82;;;5.95;;
67768;SDS011;54569;52.018;5.584;2024-01-30T10:58:29;7.78;;;5.60;;
67768;SDS011;54569;52.018;5.584;2024-01-30T11:00:55;9.73;;;5.65;;
67768;SDS011;54569;52.018;5.584;2024-01-30T11:03:22;6.68;;;5.20;;
67768;SDS011;54569;52.018;5.584;2024-01-30T11:05:51;8.85;;;6.22;;
67768;SDS011;54569;52.018;5.584;2024-01-30T11:08:24;9.50;;;5.38;;
67768;SDS011;54569;52.018;5.584;2024-01-30T11:10:55;7.43;;;4.85;;
67768;SDS011;54569;52.018;5.584;2024-01-30T11:13:22;6.90;;;4.68;;
67768;SDS011;54569;52.018;5.584;2024-01-30T11:15:53;6.93;;;4.70;;
67768;SDS011;54569;52.018;5.584;2024-01-30T11:18:25;13.13;;;4.85;;
67768;SDS011;54569;52.018;5.584;2024-01-30T11:20:55;8.85;;;4.50;;
67768;SDS011;54569;52.018;5.584;2024-01-30T11:23:22;8.38;;;4.40;;
67768;SDS011;54569;52.018;5.584;2024-01-30T11:25:48;7.82;;;4.15;;
67768;SDS011;54569;52.018;5.584;2024-01-30T11:28:14;6.70;;;4.05;;
67768;SDS011;54569;52.018;5.584;2024-01-30T11:30:43;10.02;;;4.18;;
67768;SDS011;54569;52.018;5.584;2024-01-30T11:35:37;6.13;;;4.30;;
67768;SDS011;54569;52.018;5.584;2024-01-30T11:38:04;10.27;;;4.75;;
67768;SDS011;54569;52.018;5.584;2024-01-30T11:40:31;7.38;;;3.85;;
67768;SDS011;54569;52.018;5.584;2024-01-30T11:42:59;8.38;;;4.20;;
67768;SDS011;54569;52.018;5.584;2024-01-30T11:45:26;7.75;;;3.42;;
67768;SDS011;54569;52.018;5.584;2024-01-30T11:47:54;5.30;;;3.42;;
67768;SDS011;54569;52.018;5.584;2024-01-30T11:50:21;4.22;;;2.50;;
67768;SDS011;54569;52.018;5.584;2024-01-30T11:52:49;4.32;;;2.13;;
67768;SDS011;54569;52.018;5.584;2024-01-30T11:55:15;2.13;;;1.92;;
67768;SDS011;54569;52.018;5.584;2024-01-30T11:57:42;4.47;;;2.28;;
67768;SDS011;54569;52.018;5.584;2024-01-30T12:00:16;5.18;;;2.22;;
67768;SDS011;54569;52.018;5.584;2024-01-30T12:02:49;5.15;;;2.47;;
67768;SDS011;54569;52.018;5.584;2024-01-30T12:05:24;5.03;;;2.75;;
67768;SDS011;54569;52.018;5.584;2024-01-30T12:07:50;6.60;;;2.55;;
67768;SDS011;54569;52.018;5.584;2024-01-30T12:10:16;5.00;;;3.40;;
67768;SDS011;54569;52.018;5.584;2024-01-30T12:12:45;7.82;;;3.53;;
67768;SDS011;54569;52.018;5.584;2024-01-30T12:15:13;4.35;;;2.50;;
67768;SDS011;54569;52.018;5.584;2024-01-30T12:17:39;3.97;;;1.95;;
67768;SDS011;54569;52.018;5.584;2024-01-30T12:20:09;7.45;;;2.85;;
67768;SDS011;54569;52.018;5.584;2024-01-30T12:22:37;6.25;;;2.58;;
67768;SDS011;54569;52.018;5.584;2024-01-30T12:25:04;4.00;;;2.10;;
67768;SDS011;54569;52.018;5.584;2024-01-30T12:27:33;7.65;;;1.80;;
67768;SDS011;54569;52.018;5.584;2024-01-30T12:29:59;3.78;;;1.30;;
67768;SDS011;54569;52.018;5.584;2024-01-30T12:32:25;3.17;;;1.80;;
67768;SDS011;54569;52.018;5.584;2024-01-30T12:34:54;3.83;;;1.40;;
67768;SDS011;54569;52.018;5.584;2024-01-30T12:37:21;4.15;;;2.08;;
67768;SDS011;54569;52.018;5.584;2024-01-30T12:39:49;5.38;;;2.00;;
67768;SDS011;54569;52.018;5.584;2024-01-30T12:42:17;3.30;;;1.80;;
67768;SDS011;54569;52.018;5.584;2024-01-30T12:44:44;3.00;;;1.85;;
67768;SDS011;54569;52.018;5.584;2024-01-30T12:47:09;5.43;;;1.98;;
67768;SDS011;54569;52.018;5.584;2024-01-30T12:49:35;2.63;;;1.38;;
67768;SDS011;54569;52.018;5.584;2024-01-30T12:52:01;3.97;;;1.40;;
67768;SDS011;54569;52.018;5.584;2024-01-30T12:54:28;7.43;;;1.77;;
67768;SDS011;54569;52.018;5.584;2024-01-30T12:56:53;4.43;;;2.08;;
67768;SDS011;54569;52.018;5.584;2024-01-30T12:59:19;4.13;;;1.70;;
67768;SDS011;54569;52.018;5.584;2024-01-30T13:01:45;4.20;;;2.30;;
67768;SDS011;54569;52.018;5.584;2024-01-30T13:04:11;6.55;;;1.83;;
67768;SDS011;54569;52.018;5.584;2024-01-30T13:06:37;3.88;;;2.28;;
67768;SDS011;54569;52.018;5.584;2024-01-30T13:09:02;6.72;;;2.25;;
67768;SDS011;54569;52.018;5.584;2024-01-30T13:11:28;7.20;;;2.30;;
67768;SDS011;54569;52.018;5.584;2024-01-30T13:13:54;5.72;;;2.50;;
67768;SDS011;54569;52.018;5.584;2024-01-30T13:16:19;5.03;;;2.22;;
67768;SDS011;54569;52.018;5.584;2024-01-30T13:18:45;6.00;;;2.38;;
67768;SDS011;54569;52.018;5.584;2024-01-30T13:21:11;7.13;;;2.67;;
67768;SDS011;54569;52.018;5.584;2024-01-30T13:23:37;7.68;;;2.75;;
67768;SDS011;54569;52.018;5.584;2024-01-30T13:26:02;5.13;;;2.30;;
67768;SDS011;54569;52.018;5.584;2024-01-30T13:28:28;6.15;;;2.33;;
67768;SDS011;54569;52.018;5.584;2024-01-30T13:30:54;5.90;;;3.03;;
67768;SDS011;54569;52.018;5.584;2024-01-30T13:33:20;7.28;;;3.70;;
67768;SDS011;54569;52.018;5.584;2024-01-30T13:35:45;5.45;;;3.05;;
67768;SDS011;54569;52.018;5.584;2024-01-30T13:38:11;3.78;;;3.35;;
67768;SDS011;54569;52.018;5.584;2024-01-30T13:40:38;5.97;;;2.97;;
67768;SDS011;54569;52.018;5.584;2024-01-30T13:43:04;5.78;;;2.85;;
67768;SDS011;54569;52.018;5.584;2024-01-30T13:45:30;4.82;;;3.03;;
67768;SDS011;54569;52.018;5.584;2024-01-30T13:47:55;6.18;;;3.40;;
67768;SDS011;54569;52.018;5.584;2024-01-30T13:50:21;6.85;;;3.53;;
67768;SDS011;54569;52.018;5.584;2024-01-30T13:52:47;6.90;;;3.28;;
67768;SDS011;54569;52.018;5.584;2024-01-30T13:55:12;13.68;;;3.20;;
67768;SDS011;54569;52.018;5.584;2024-01-30T13:57:38;6.50;;;2.55;;
67768;SDS011;54569;52.018;5.584;2024-01-30T14:00:04;3.75;;;1.90;;
67768;SDS011;54569;52.018;5.584;2024-01-30T14:02:40;3.60;;;1.50;;
67768;SDS011;54569;52.018;5.584;2024-01-30T14:05:05;2.38;;;1.70;;
67768;SDS011;54569;52.018;5.584;2024-01-30T14:07:31;3.20;;;1.45;;
67768;SDS011;54569;52.018;5.584;2024-01-30T14:09:57;2.95;;;1.45;;
67768;SDS011;54569;52.018;5.584;2024-01-30T14:12:23;3.60;;;1.55;;
67768;SDS011;54569;52.018;5.584;2024-01-30T14:14:49;3.42;;;1.52;;
67768;SDS011;54569;52.018;5.584;2024-01-30T14:17:15;4.57;;;1.30;;
67768;SDS011;54569;52.018;5.584;2024-01-30T14:19:40;2.40;;;1.15;;
67768;SDS011;54569;52.018;5.584;2024-01-30T14:22:06;4.65;;;1.58;;
67768;SDS011;54569;52.018;5.584;2024-01-30T14:24:32;5.35;;;1.40;;
67768;SDS011;54569;52.018;5.584;2024-01-30T14:26:58;2.95;;;1.88;;
67768;SDS011;54569;52.018;5.584;2024-01-30T14:29:24;1.67;;;1.40;;
67768;SDS011;54569;52.018;5.584;2024-01-30T14:31:50;5.18;;;1.42;;
67768;SDS011;54569;52.018;5.584;2024-01-30T14:34:16;2.72;;;2.00;;
67768;SDS011;54569;52.018;5.584;2024-01-30T14:36:42;3.33;;;1.98;;
67768;SDS011;54569;52.018;5.584;2024-01-30T14:39:08;2.28;;;2.08;;
67768;SDS011;54569;52.018;5.584;2024-01-30T14:41:34;4.00;;;2.10;;
67768;SDS011;54569;52.018;5.584;2024-01-30T14:44:00;3.78;;;2.33;;